sensor_id;sensor_type;location;lat;lon;timestamp;temperature;humidity
80495;DHT22;69819;48.798;11.770;2023-09-19T00:00:06;20.30;55.10
80495;DHT22;69819;48.798;11.770;2023-09-19T00:02:33;20.30;55.10
80495;DHT22;69819;48.798;11.770;2023-09-19T00:04:59;20.30;55.00
80495;DHT22;69819;48.798;11.770;2023-09-19T00:07:28;20.30;54.90
80495;DHT22;69819;48.798;11.770;2023-09-19T00:09:54;20.40;55.60
80495;DHT22;69819;48.798;11.770;2023-09-19T00:12:20;20.30;54.90
80495;DHT22;69819;48.798;11.770;2023-09-19T00:14:46;20.30;55.00
80495;DHT22;69819;48.798;11.770;2023-09-19T00:17:13;20.30;54.90
80495;DHT22;69819;48.798;11.770;2023-09-19T00:19:41;20.30;55.00
80495;DHT22;69819;48.798;11.770;2023-09-19T00:22:08;20.30;55.00
80495;DHT22;69819;48.798;11.770;2023-09-19T00:24:34;20.40;55.20
80495;DHT22;69819;48.798;11.770;2023-09-19T00:26:59;20.30;55.20
80495;DHT22;69819;48.798;11.770;2023-09-19T00:29:25;20.40;55.20
80495;DHT22;69819;48.798;11.770;2023-09-19T00:31:55;20.40;55.20
80495;DHT22;69819;48.798;11.770;2023-09-19T00:34:24;20.40;55.20
80495;DHT22;69819;48.798;11.770;2023-09-19T00:36:51;20.40;55.60
80495;DHT22;69819;48.798;11.770;2023-09-19T00:39:20;20.40;55.10
80495;DHT22;69819;48.798;11.770;2023-09-19T00:41:47;20.40;55.10
80495;DHT22;69819;48.798;11.770;2023-09-19T00:44:13;20.40;55.10
80495;DHT22;69819;48.798;11.770;2023-09-19T00:46:41;20.50;55.20
80495;DHT22;69819;48.798;11.770;2023-09-19T00:49:08;20.50;55.20
80495;DHT22;69819;48.798;11.770;2023-09-19T00:51:35;20.50;55.30
80495;DHT22;69819;48.798;11.770;2023-09-19T00:54:02;20.50;55.30
80495;DHT22;69819;48.798;11.770;2023-09-19T00:56:29;20.50;55.30
80495;DHT22;69819;48.798;11.770;2023-09-19T00:58:55;20.60;55.40
80495;DHT22;69819;48.798;11.770;2023-09-19T01:01:21;20.60;55.30
80495;DHT22;69819;48.798;11.770;2023-09-19T01:03:47;20.60;55.30
80495;DHT22;69819;48.798;11.770;2023-09-19T01:06:13;20.60;55.30
80495;DHT22;69819;48.798;11.770;2023-09-19T01:08:38;20.70;55.30
80495;DHT22;69819;48.798;11.770;2023-09-19T01:11:28;20.70;55.40
80495;DHT22;69819;48.798;11.770;2023-09-19T01:32:06;21.00;55.70
80495;DHT22;69819;48.798;11.770;2023-09-19T01:37:13;21.00;55.40
80495;DHT22;69819;48.798;11.770;2023-09-19T01:39:44;21.00;55.20
80495;DHT22;69819;48.798;11.770;2023-09-19T01:42:21;21.00;55.70
80495;DHT22;69819;48.798;11.770;2023-09-19T01:51:14;21.10;55.60
80495;DHT22;69819;48.798;11.770;2023-09-19T01:54:01;21.10;55.10
80495;DHT22;69819;48.798;11.770;2023-09-19T01:56:40;21.10;55.40
80495;DHT22;69819;48.798;11.770;2023-09-19T01:59:16;21.20;55.30
80495;DHT22;69819;48.798;11.770;2023-09-19T02:01:48;21.20;55.20
80495;DHT22;69819;48.798;11.770;2023-09-19T02:04:15;21.20;55.10
80495;DHT22;69819;48.798;11.770;2023-09-19T02:06:41;21.20;55.10
80495;DHT22;69819;48.798;11.770;2023-09-19T02:09:07;21.20;55.10
80495;DHT22;69819;48.798;11.770;2023-09-19T02:11:34;21.20;55.20
80495;DHT22;69819;48.798;11.770;2023-09-19T02:14:02;21.20;55.20
80495;DHT22;69819;48.798;11.770;2023-09-19T02:16:28;21.20;55.10
80495;DHT22;69819;48.798;11.770;2023-09-19T02:18:54;21.20;55.10
80495;DHT22;69819;48.798;11.770;2023-09-19T02:21:20;21.30;55.20
80495;DHT22;69819;48.798;11.770;2023-09-19T02:23:47;21.30;55.20
80495;DHT22;69819;48.798;11.770;2023-09-19T02:26:13;21.30;55.10
80495;DHT22;69819;48.798;11.770;2023-09-19T02:28:40;21.30;55.00
80495;DHT22;69819;48.798;11.770;2023-09-19T02:31:06;21.30;55.00
80495;DHT22;69819;48.798;11.770;2023-09-19T02:33:32;21.30;55.00
80495;DHT22;69819;48.798;11.770;2023-09-19T02:35:58;21.30;55.00
80495;DHT22;69819;48.798;11.770;2023-09-19T02:38:25;21.40;55.10
80495;DHT22;69819;48.798;11.770;2023-09-19T02:40:52;21.40;55.10
80495;DHT22;69819;48.798;11.770;2023-09-19T02:43:18;21.40;55.10
80495;DHT22;69819;48.798;11.770;2023-09-19T02:45:47;21.40;55.00
80495;DHT22;69819;48.798;11.770;2023-09-19T02:48:19;21.40;55.10
80495;DHT22;69819;48.798;11.770;2023-09-19T02:50:45;21.40;55.10
80495;DHT22;69819;48.798;11.770;2023-09-19T02:53:11;21.40;55.10
80495;DHT22;69819;48.798;11.770;2023-09-19T02:55:39;21.40;55.10
80495;DHT22;69819;48.798;11.770;2023-09-19T02:58:08;21.40;55.00
80495;DHT22;69819;48.798;11.770;2023-09-19T03:00:36;21.40;55.10
80495;DHT22;69819;48.798;11.770;2023-09-19T03:03:03;21.40;55.10
80495;DHT22;69819;48.798;11.770;2023-09-19T03:05:30;21.40;55.10
80495;DHT22;69819;48.798;11.770;2023-09-19T03:07:57;21.40;55.00
80495;DHT22;69819;48.798;11.770;2023-09-19T03:10:26;21.40;55.00
80495;DHT22;69819;48.798;11.770;2023-09-19T03:12:53;21.40;55.10
80495;DHT22;69819;48.798;11.770;2023-09-19T03:15:19;21.40;55.10
80495;DHT22;69819;48.798;11.770;2023-09-19T03:17:47;21.40;55.00
80495;DHT22;69819;48.798;11.770;2023-09-19T03:20:14;21.40;55.10
80495;DHT22;69819;48.798;11.770;2023-09-19T03:22:45;21.40;55.10
80495;DHT22;69819;48.798;11.770;2023-09-19T03:25:12;21.40;55.10
80495;DHT22;69819;48.798;11.770;2023-09-19T03:27:41;21.40;55.00
80495;DHT22;69819;48.798;11.770;2023-09-19T03:30:07;21.40;55.00
80495;DHT22;69819;48.798;11.770;2023-09-19T03:32:46;21.40;55.00
80495;DHT22;69819;48.798;11.770;2023-09-19T03:35:15;21.30;55.00
80495;DHT22;69819;48.798;11.770;2023-09-19T03:37:42;21.30;55.00
80495;DHT22;69819;48.798;11.770;2023-09-19T03:40:10;21.30;55.00
80495;DHT22;69819;48.798;11.770;2023-09-19T03:42:40;21.30;55.00
80495;DHT22;69819;48.798;11.770;2023-09-19T03:45:10;21.30;55.00
80495;DHT22;69819;48.798;11.770;2023-09-19T03:47:41;21.30;55.00
80495;DHT22;69819;48.798;11.770;2023-09-19T03:50:08;21.30;54.90
80495;DHT22;69819;48.798;11.770;2023-09-19T03:52:36;21.20;54.90
80495;DHT22;69819;48.798;11.770;2023-09-19T03:55:02;21.30;55.00
80495;DHT22;69819;48.798;11.770;2023-09-19T03:57:29;21.30;55.00
80495;DHT22;69819;48.798;11.770;2023-09-19T03:59:55;21.20;54.90
80495;DHT22;69819;48.798;11.770;2023-09-19T04:02:21;21.20;54.90
80495;DHT22;69819;48.798;11.770;2023-09-19T04:04:48;21.20;54.90
80495;DHT22;69819;48.798;11.770;2023-09-19T04:07:15;21.20;54.90
80495;DHT22;69819;48.798;11.770;2023-09-19T04:09:40;21.30;55.00
80495;DHT22;69819;48.798;11.770;2023-09-19T04:12:07;21.30;55.00
80495;DHT22;69819;48.798;11.770;2023-09-19T04:14:36;21.30;55.00
80495;DHT22;69819;48.798;11.770;2023-09-19T04:17:03;21.30;55.00
80495;DHT22;69819;48.798;11.770;2023-09-19T04:19:30;21.30;54.90
80495;DHT22;69819;48.798;11.770;2023-09-19T04:21:56;21.30;55.00
80495;DHT22;69819;48.798;11.770;2023-09-19T04:24:22;21.30;54.90
80495;DHT22;69819;48.798;11.770;2023-09-19T04:26:48;21.30;55.00
80495;DHT22;69819;48.798;11.770;2023-09-19T04:29:14;21.30;54.90
80495;DHT22;69819;48.798;11.770;2023-09-19T04:31:40;21.30;54.90
80495;DHT22;69819;48.798;11.770;2023-09-19T04:34:09;21.30;55.00
80495;DHT22;69819;48.798;11.770;2023-09-19T04:36:35;21.30;55.00
80495;DHT22;69819;48.798;11.770;2023-09-19T04:39:03;21.30;54.90
80495;DHT22;69819;48.798;11.770;2023-09-19T04:41:32;21.20;54.90
80495;DHT22;69819;48.798;11.770;2023-09-19T04:44:00;21.30;55.00
80495;DHT22;69819;48.798;11.770;2023-09-19T04:46:26;21.30;55.00
80495;DHT22;69819;48.798;11.770;2023-09-19T04:48:52;21.30;55.00
80495;DHT22;69819;48.798;11.770;2023-09-19T04:51:18;21.30;55.00
80495;DHT22;69819;48.798;11.770;2023-09-19T04:53:45;21.30;55.20
80495;DHT22;69819;48.798;11.770;2023-09-19T04:56:12;21.30;55.20
80495;DHT22;69819;48.798;11.770;2023-09-19T04:58:38;21.30;55.20
80495;DHT22;69819;48.798;11.770;2023-09-19T05:01:04;21.30;55.30
80495;DHT22;69819;48.798;11.770;2023-09-19T05:03:30;21.30;55.30
80495;DHT22;69819;48.798;11.770;2023-09-19T05:05:56;21.30;55.30
80495;DHT22;69819;48.798;11.770;2023-09-19T05:08:22;21.40;55.40
80495;DHT22;69819;48.798;11.770;2023-09-19T05:10:48;21.40;55.50
80495;DHT22;69819;48.798;11.770;2023-09-19T05:13:14;21.40;55.50
80495;DHT22;69819;48.798;11.770;2023-09-19T05:15:40;21.40;55.50
80495;DHT22;69819;48.798;11.770;2023-09-19T05:18:06;21.50;55.50
80495;DHT22;69819;48.798;11.770;2023-09-19T05:20:32;21.50;55.60
80495;DHT22;69819;48.798;11.770;2023-09-19T05:23:04;21.50;55.60
80495;DHT22;69819;48.798;11.770;2023-09-19T05:25:38;21.50;55.60
80495;DHT22;69819;48.798;11.770;2023-09-19T05:28:10;21.50;55.60
80495;DHT22;69819;48.798;11.770;2023-09-19T05:30:40;21.60;55.70
80495;DHT22;69819;48.798;11.770;2023-09-19T05:33:08;21.60;55.70
80495;DHT22;69819;48.798;11.770;2023-09-19T05:35:35;21.60;55.80
80495;DHT22;69819;48.798;11.770;2023-09-19T05:38:05;21.60;55.80
80495;DHT22;69819;48.798;11.770;2023-09-19T05:40:34;21.60;56.30
80495;DHT22;69819;48.798;11.770;2023-09-19T05:43:01;21.60;56.30
80495;DHT22;69819;48.798;11.770;2023-09-19T05:45:28;21.60;55.80
80495;DHT22;69819;48.798;11.770;2023-09-19T05:47:54;21.60;55.80
80495;DHT22;69819;48.798;11.770;2023-09-19T05:50:29;21.60;55.80
80495;DHT22;69819;48.798;11.770;2023-09-19T05:52:57;21.60;55.80
80495;DHT22;69819;48.798;11.770;2023-09-19T05:55:23;21.60;55.80
80495;DHT22;69819;48.798;11.770;2023-09-19T05:57:52;21.60;55.80
80495;DHT22;69819;48.798;11.770;2023-09-19T06:00:23;21.60;55.80
80495;DHT22;69819;48.798;11.770;2023-09-19T06:02:53;21.60;56.00
80495;DHT22;69819;48.798;11.770;2023-09-19T06:05:24;21.60;56.50
80495;DHT22;69819;48.798;11.770;2023-09-19T06:07:52;21.80;58.10
80495;DHT22;69819;48.798;11.770;2023-09-19T06:10:18;22.00;58.20
80495;DHT22;69819;48.798;11.770;2023-09-19T06:12:47;22.50;58.70
80495;DHT22;69819;48.798;11.770;2023-09-19T06:15:14;23.10;58.80
80495;DHT22;69819;48.798;11.770;2023-09-19T06:17:55;23.60;59.50
80495;DHT22;69819;48.798;11.770;2023-09-19T06:20:22;24.30;58.70
80495;DHT22;69819;48.798;11.770;2023-09-19T06:22:51;25.10;59.10
80495;DHT22;69819;48.798;11.770;2023-09-19T06:25:17;25.80;58.40
80495;DHT22;69819;48.798;11.770;2023-09-19T06:27:51;26.60;58.10
80495;DHT22;69819;48.798;11.770;2023-09-19T06:30:19;27.40;57.40
80495;DHT22;69819;48.798;11.770;2023-09-19T06:32:46;28.20;57.10
80495;DHT22;69819;48.798;11.770;2023-09-19T06:35:13;29.00;55.80
80495;DHT22;69819;48.798;11.770;2023-09-19T06:37:41;29.60;54.10
80495;DHT22;69819;48.798;11.770;2023-09-19T06:40:13;30.00;52.40
80495;DHT22;69819;48.798;11.770;2023-09-19T06:42:52;30.10;50.90
80495;DHT22;69819;48.798;11.770;2023-09-19T06:45:19;30.10;49.60
80495;DHT22;69819;48.798;11.770;2023-09-19T06:47:47;30.00;49.70
80495;DHT22;69819;48.798;11.770;2023-09-19T06:50:19;29.90;49.40
80495;DHT22;69819;48.798;11.770;2023-09-19T06:52:48;29.60;49.10
80495;DHT22;69819;48.798;11.770;2023-09-19T06:55:20;29.40;49.00
80495;DHT22;69819;48.798;11.770;2023-09-19T06:57:50;29.10;49.00
80495;DHT22;69819;48.798;11.770;2023-09-19T07:00:16;29.00;50.20
80495;DHT22;69819;48.798;11.770;2023-09-19T07:03:04;29.20;51.40
80495;DHT22;69819;48.798;11.770;2023-09-19T07:05:34;29.70;51.30
80495;DHT22;69819;48.798;11.770;2023-09-19T07:08:05;30.30;52.50
80495;DHT22;69819;48.798;11.770;2023-09-19T07:10:32;31.00;51.80
80495;DHT22;69819;48.798;11.770;2023-09-19T07:13:06;31.70;51.30
80495;DHT22;69819;48.798;11.770;2023-09-19T07:15:36;32.40;50.20
80495;DHT22;69819;48.798;11.770;2023-09-19T07:18:12;33.10;51.40
80495;DHT22;69819;48.798;11.770;2023-09-19T07:20:40;33.90;50.10
80495;DHT22;69819;48.798;11.770;2023-09-19T07:23:11;34.80;49.30
80495;DHT22;69819;48.798;11.770;2023-09-19T07:25:40;35.50;48.50
80495;DHT22;69819;48.798;11.770;2023-09-19T07:28:06;36.30;47.50
80495;DHT22;69819;48.798;11.770;2023-09-19T07:30:32;36.90;47.40
80495;DHT22;69819;48.798;11.770;2023-09-19T07:33:02;37.50;46.00
80495;DHT22;69819;48.798;11.770;2023-09-19T07:35:30;38.10;45.30
80495;DHT22;69819;48.798;11.770;2023-09-19T07:37:57;38.80;44.80
80495;DHT22;69819;48.798;11.770;2023-09-19T07:40:23;39.20;43.10
80495;DHT22;69819;48.798;11.770;2023-09-19T07:42:52;39.40;41.30
80495;DHT22;69819;48.798;11.770;2023-09-19T07:45:18;39.30;39.90
80495;DHT22;69819;48.798;11.770;2023-09-19T07:47:47;38.90;38.90
80495;DHT22;69819;48.798;11.770;2023-09-19T07:50:15;38.50;38.30
80495;DHT22;69819;48.798;11.770;2023-09-19T07:52:46;38.10;38.80
80495;DHT22;69819;48.798;11.770;2023-09-19T07:55:19;37.70;38.70
80495;DHT22;69819;48.798;11.770;2023-09-19T07:57:48;37.30;38.90
80495;DHT22;69819;48.798;11.770;2023-09-19T08:00:15;36.90;38.80
80495;DHT22;69819;48.798;11.770;2023-09-19T08:02:41;36.60;38.90
80495;DHT22;69819;48.798;11.770;2023-09-19T08:05:12;36.30;38.80
80495;DHT22;69819;48.798;11.770;2023-09-19T08:07:42;35.90;38.40
80495;DHT22;69819;48.798;11.770;2023-09-19T08:10:10;35.60;38.80
80495;DHT22;69819;48.798;11.770;2023-09-19T08:12:46;35.30;39.20
80495;DHT22;69819;48.798;11.770;2023-09-19T08:15:20;35.10;38.70
80495;DHT22;69819;48.798;11.770;2023-09-19T08:17:47;34.90;39.10
80495;DHT22;69819;48.798;11.770;2023-09-19T08:20:14;34.70;39.60
80495;DHT22;69819;48.798;11.770;2023-09-19T08:22:53;34.50;39.50
80495;DHT22;69819;48.798;11.770;2023-09-19T08:25:23;34.20;38.80
80495;DHT22;69819;48.798;11.770;2023-09-19T08:27:50;34.00;39.50
80495;DHT22;69819;48.798;11.770;2023-09-19T08:30:18;33.80;39.60
80495;DHT22;69819;48.798;11.770;2023-09-19T08:32:59;33.60;39.70
80495;DHT22;69819;48.798;11.770;2023-09-19T08:35:26;33.50;39.60
80495;DHT22;69819;48.798;11.770;2023-09-19T08:37:52;33.40;39.80
80495;DHT22;69819;48.798;11.770;2023-09-19T08:40:18;33.30;39.90
80495;DHT22;69819;48.798;11.770;2023-09-19T08:42:49;33.20;40.20
80495;DHT22;69819;48.798;11.770;2023-09-19T08:45:23;33.30;40.70
80495;DHT22;69819;48.798;11.770;2023-09-19T08:51:02;33.60;40.00
80495;DHT22;69819;48.798;11.770;2023-09-19T08:53:50;33.70;40.00
80495;DHT22;69819;48.798;11.770;2023-09-19T08:56:20;33.60;38.90
80495;DHT22;69819;48.798;11.770;2023-09-19T08:58:50;33.40;39.20
80495;DHT22;69819;48.798;11.770;2023-09-19T09:01:20;33.10;39.10
80495;DHT22;69819;48.798;11.770;2023-09-19T09:03:51;32.70;39.10
80495;DHT22;69819;48.798;11.770;2023-09-19T09:06:22;32.40;39.20
80495;DHT22;69819;48.798;11.770;2023-09-19T09:08:52;32.00;39.30
80495;DHT22;69819;48.798;11.770;2023-09-19T09:11:19;31.60;39.40
80495;DHT22;69819;48.798;11.770;2023-09-19T09:13:46;31.20;39.70
80495;DHT22;69819;48.798;11.770;2023-09-19T09:16:14;30.80;39.80
80495;DHT22;69819;48.798;11.770;2023-09-19T09:18:44;30.40;40.10
80495;DHT22;69819;48.798;11.770;2023-09-19T09:21:11;29.90;40.40
80495;DHT22;69819;48.798;11.770;2023-09-19T09:23:39;29.50;40.80
80495;DHT22;69819;48.798;11.770;2023-09-19T09:26:04;29.10;41.00
80495;DHT22;69819;48.798;11.770;2023-09-19T09:28:34;28.70;41.50
80495;DHT22;69819;48.798;11.770;2023-09-19T09:31:01;28.30;42.00
80495;DHT22;69819;48.798;11.770;2023-09-19T09:33:35;28.00;42.40
80495;DHT22;69819;48.798;11.770;2023-09-19T09:36:02;27.60;42.60
80495;DHT22;69819;48.798;11.770;2023-09-19T09:38:43;27.30;43.00
80495;DHT22;69819;48.798;11.770;2023-09-19T09:41:15;27.00;43.60
80495;DHT22;69819;48.798;11.770;2023-09-19T09:43:52;26.70;43.80
80495;DHT22;69819;48.798;11.770;2023-09-19T09:46:20;26.60;44.00
80495;DHT22;69819;48.798;11.770;2023-09-19T09:51:49;26.10;44.50
80495;DHT22;69819;48.798;11.770;2023-09-19T09:54:25;26.00;45.10
80495;DHT22;69819;48.798;11.770;2023-09-19T09:57:03;25.80;45.10
80495;DHT22;69819;48.798;11.770;2023-09-19T10:02:28;25.70;46.30
80495;DHT22;69819;48.798;11.770;2023-09-19T10:04:58;25.80;46.00
80495;DHT22;69819;48.798;11.770;2023-09-19T10:07:36;25.80;46.00
80495;DHT22;69819;48.798;11.770;2023-09-19T10:10:07;25.90;46.00
80495;DHT22;69819;48.798;11.770;2023-09-19T10:12:55;26.00;46.30
80495;DHT22;69819;48.798;11.770;2023-09-19T10:15:32;26.10;46.30
80495;DHT22;69819;48.798;11.770;2023-09-19T10:18:00;26.10;45.90
80495;DHT22;69819;48.798;11.770;2023-09-19T10:20:30;26.20;45.70
80495;DHT22;69819;48.798;11.770;2023-09-19T10:23:03;26.20;45.60
80495;DHT22;69819;48.798;11.770;2023-09-19T10:25:43;26.20;45.50
80495;DHT22;69819;48.798;11.770;2023-09-19T10:28:13;26.10;45.20
80495;DHT22;69819;48.798;11.770;2023-09-19T10:30:45;26.10;45.10
80495;DHT22;69819;48.798;11.770;2023-09-19T10:33:16;26.00;45.20
80495;DHT22;69819;48.798;11.770;2023-09-19T10:35:49;26.00;45.40
80495;DHT22;69819;48.798;11.770;2023-09-19T10:38:23;26.00;45.60
80495;DHT22;69819;48.798;11.770;2023-09-19T10:40:52;26.10;45.80
80495;DHT22;69819;48.798;11.770;2023-09-19T10:43:21;26.10;45.80
80495;DHT22;69819;48.798;11.770;2023-09-19T10:45:50;26.20;45.90
80495;DHT22;69819;48.798;11.770;2023-09-19T10:48:18;26.20;46.00
80495;DHT22;69819;48.798;11.770;2023-09-19T10:51:09;26.30;46.20
80495;DHT22;69819;48.798;11.770;2023-09-19T10:53:50;26.50;46.30
80495;DHT22;69819;48.798;11.770;2023-09-19T10:56:24;26.70;46.10
80495;DHT22;69819;48.798;11.770;2023-09-19T10:59:12;26.80;45.90
80495;DHT22;69819;48.798;11.770;2023-09-19T11:01:50;27.00;45.90
80495;DHT22;69819;48.798;11.770;2023-09-19T11:04:28;27.20;45.80
80495;DHT22;69819;48.798;11.770;2023-09-19T11:07:10;27.40;45.70
80495;DHT22;69819;48.798;11.770;2023-09-19T11:15:07;28.10;45.40
80495;DHT22;69819;48.798;11.770;2023-09-19T11:17:43;28.30;45.40
80495;DHT22;69819;48.798;11.770;2023-09-19T11:30:31;28.90;43.30
80495;DHT22;69819;48.798;11.770;2023-09-19T11:46:55;29.00;43.00
80495;DHT22;69819;48.798;11.770;2023-09-19T11:49:28;29.00;42.70
80495;DHT22;69819;48.798;11.770;2023-09-19T11:51:58;29.00;42.90
80495;DHT22;69819;48.798;11.770;2023-09-19T11:54:31;29.00;43.00
80495;DHT22;69819;48.798;11.770;2023-09-19T11:56:59;29.00;42.90
80495;DHT22;69819;48.798;11.770;2023-09-19T11:59:32;29.00;42.70
80495;DHT22;69819;48.798;11.770;2023-09-19T12:02:12;29.10;42.30
80495;DHT22;69819;48.798;11.770;2023-09-19T12:04:53;29.10;42.20
80495;DHT22;69819;48.798;11.770;2023-09-19T12:07:19;29.20;42.60
80495;DHT22;69819;48.798;11.770;2023-09-19T12:10:02;29.20;42.60
80495;DHT22;69819;48.798;11.770;2023-09-19T12:12:30;29.30;42.30
80495;DHT22;69819;48.798;11.770;2023-09-19T12:14:57;29.30;42.30
80495;DHT22;69819;48.798;11.770;2023-09-19T12:17:24;29.40;42.30
80495;DHT22;69819;48.798;11.770;2023-09-19T12:20:01;29.40;42.40
80495;DHT22;69819;48.798;11.770;2023-09-19T12:22:45;29.50;42.20
80495;DHT22;69819;48.798;11.770;2023-09-19T12:25:13;29.60;41.90
80495;DHT22;69819;48.798;11.770;2023-09-19T12:27:45;29.70;42.00
80495;DHT22;69819;48.798;11.770;2023-09-19T12:30:13;29.70;41.70
80495;DHT22;69819;48.798;11.770;2023-09-19T12:32:40;29.80;41.80
80495;DHT22;69819;48.798;11.770;2023-09-19T12:35:08;29.90;41.80
80495;DHT22;69819;48.798;11.770;2023-09-19T12:37:37;30.00;41.60
80495;DHT22;69819;48.798;11.770;2023-09-19T12:40:08;30.10;41.50
80495;DHT22;69819;48.798;11.770;2023-09-19T12:42:48;30.10;41.00
80495;DHT22;69819;48.798;11.770;2023-09-19T12:45:15;30.20;41.20
80495;DHT22;69819;48.798;11.770;2023-09-19T12:48:17;30.20;41.00
80495;DHT22;69819;48.798;11.770;2023-09-19T12:51:08;30.30;40.40
80495;DHT22;69819;48.798;11.770;2023-09-19T12:53:43;30.20;40.40
80495;DHT22;69819;48.798;11.770;2023-09-19T12:56:13;30.10;40.60
80495;DHT22;69819;48.798;11.770;2023-09-19T13:01:22;30.00;40.30
80495;DHT22;69819;48.798;11.770;2023-09-19T13:06:38;29.90;40.40
80495;DHT22;69819;48.798;11.770;2023-09-19T13:09:10;29.90;40.90
80495;DHT22;69819;48.798;11.770;2023-09-19T13:11:38;29.90;40.70
80495;DHT22;69819;48.798;11.770;2023-09-19T13:14:20;29.90;41.00
80495;DHT22;69819;48.798;11.770;2023-09-19T13:17:03;29.90;40.50
80495;DHT22;69819;48.798;11.770;2023-09-19T13:19:44;29.90;40.90
80495;DHT22;69819;48.798;11.770;2023-09-19T13:22:37;29.90;40.80
80495;DHT22;69819;48.798;11.770;2023-09-19T13:25:04;29.90;40.20
80495;DHT22;69819;48.798;11.770;2023-09-19T13:27:32;29.90;40.70
80495;DHT22;69819;48.798;11.770;2023-09-19T13:29:58;29.90;40.70
80495;DHT22;69819;48.798;11.770;2023-09-19T13:32:25;29.80;40.40
80495;DHT22;69819;48.798;11.770;2023-09-19T13:34:51;29.80;40.30
80495;DHT22;69819;48.798;11.770;2023-09-19T13:37:17;29.70;40.20
80495;DHT22;69819;48.798;11.770;2023-09-19T13:39:43;29.70;40.30
80495;DHT22;69819;48.798;11.770;2023-09-19T13:42:13;29.60;40.30
80495;DHT22;69819;48.798;11.770;2023-09-19T13:44:39;29.60;40.30
80495;DHT22;69819;48.798;11.770;2023-09-19T13:47:06;29.50;40.20
80495;DHT22;69819;48.798;11.770;2023-09-19T13:49:38;29.50;40.30
80495;DHT22;69819;48.798;11.770;2023-09-19T13:52:04;29.40;40.40
80495;DHT22;69819;48.798;11.770;2023-09-19T13:54:31;29.40;40.60
80495;DHT22;69819;48.798;11.770;2023-09-19T13:56:57;29.40;40.60
80495;DHT22;69819;48.798;11.770;2023-09-19T13:59:23;29.30;40.40
80495;DHT22;69819;48.798;11.770;2023-09-19T14:01:50;29.30;40.40
80495;DHT22;69819;48.798;11.770;2023-09-19T14:04:19;29.20;40.40
80495;DHT22;69819;48.798;11.770;2023-09-19T14:06:47;29.20;40.90
80495;DHT22;69819;48.798;11.770;2023-09-19T14:09:13;29.10;40.30
80495;DHT22;69819;48.798;11.770;2023-09-19T14:11:39;29.00;40.30
80495;DHT22;69819;48.798;11.770;2023-09-19T14:14:05;28.90;40.30
80495;DHT22;69819;48.798;11.770;2023-09-19T14:16:31;28.80;40.30
80495;DHT22;69819;48.798;11.770;2023-09-19T14:18:58;28.70;40.20
80495;DHT22;69819;48.798;11.770;2023-09-19T14:21:25;28.60;40.20
80495;DHT22;69819;48.798;11.770;2023-09-19T14:23:51;28.50;40.40
80495;DHT22;69819;48.798;11.770;2023-09-19T14:26:17;28.40;40.10
80495;DHT22;69819;48.798;11.770;2023-09-19T14:28:43;28.30;40.10
80495;DHT22;69819;48.798;11.770;2023-09-19T14:31:11;28.30;40.10
80495;DHT22;69819;48.798;11.770;2023-09-19T14:33:37;28.20;40.10
80495;DHT22;69819;48.798;11.770;2023-09-19T14:36:04;28.20;40.60
80495;DHT22;69819;48.798;11.770;2023-09-19T14:38:36;28.10;39.90
80495;DHT22;69819;48.798;11.770;2023-09-19T14:41:06;28.10;39.80
80495;DHT22;69819;48.798;11.770;2023-09-19T14:43:32;28.00;39.70
80495;DHT22;69819;48.798;11.770;2023-09-19T14:46:07;27.90;39.70
80495;DHT22;69819;48.798;11.770;2023-09-19T14:48:35;27.90;39.90
80495;DHT22;69819;48.798;11.770;2023-09-19T14:51:04;27.80;39.60
80495;DHT22;69819;48.798;11.770;2023-09-19T14:53:31;27.80;39.70
80495;DHT22;69819;48.798;11.770;2023-09-19T14:56:03;27.70;39.70
80495;DHT22;69819;48.798;11.770;2023-09-19T14:58:33;27.70;39.60
80495;DHT22;69819;48.798;11.770;2023-09-19T15:01:13;27.60;40.20
80495;DHT22;69819;48.798;11.770;2023-09-19T15:03:40;27.60;39.50
80495;DHT22;69819;48.798;11.770;2023-09-19T15:06:12;27.60;39.80
80495;DHT22;69819;48.798;11.770;2023-09-19T15:08:45;27.50;39.70
80495;DHT22;69819;48.798;11.770;2023-09-19T15:11:16;27.50;39.70
80495;DHT22;69819;48.798;11.770;2023-09-19T15:13:43;27.50;39.70
80495;DHT22;69819;48.798;11.770;2023-09-19T15:16:11;27.40;39.70
80495;DHT22;69819;48.798;11.770;2023-09-19T15:18:39;27.40;39.80
80495;DHT22;69819;48.798;11.770;2023-09-19T15:21:07;27.30;39.80
80495;DHT22;69819;48.798;11.770;2023-09-19T15:23:35;27.30;39.90
80495;DHT22;69819;48.798;11.770;2023-09-19T15:26:03;27.30;40.00
80495;DHT22;69819;48.798;11.770;2023-09-19T15:28:30;27.20;40.50
80495;DHT22;69819;48.798;11.770;2023-09-19T15:33:29;27.20;40.00
80495;DHT22;69819;48.798;11.770;2023-09-19T15:36:12;27.10;40.10
80495;DHT22;69819;48.798;11.770;2023-09-19T15:39:01;27.10;40.00
80495;DHT22;69819;48.798;11.770;2023-09-19T15:41:34;27.00;40.10
80495;DHT22;69819;48.798;11.770;2023-09-19T15:44:03;27.00;40.20
80495;DHT22;69819;48.798;11.770;2023-09-19T15:46:33;27.00;40.20
80495;DHT22;69819;48.798;11.770;2023-09-19T15:49:01;26.90;40.20
80495;DHT22;69819;48.798;11.770;2023-09-19T15:51:27;26.80;40.30
80495;DHT22;69819;48.798;11.770;2023-09-19T15:53:54;26.80;40.60
80495;DHT22;69819;48.798;11.770;2023-09-19T15:56:22;26.70;40.50
80495;DHT22;69819;48.798;11.770;2023-09-19T15:58:53;26.60;40.50
80495;DHT22;69819;48.798;11.770;2023-09-19T16:01:22;26.60;40.60
80495;DHT22;69819;48.798;11.770;2023-09-19T16:03:52;26.50;40.70
80495;DHT22;69819;48.798;11.770;2023-09-19T16:06:22;26.40;40.70
80495;DHT22;69819;48.798;11.770;2023-09-19T16:08:58;26.40;40.90
80495;DHT22;69819;48.798;11.770;2023-09-19T16:11:26;26.30;41.00
80495;DHT22;69819;48.798;11.770;2023-09-19T16:13:53;26.20;41.10
80495;DHT22;69819;48.798;11.770;2023-09-19T16:16:20;26.10;41.10
80495;DHT22;69819;48.798;11.770;2023-09-19T16:21:18;26.00;41.10
80495;DHT22;69819;48.798;11.770;2023-09-19T16:23:48;26.00;41.20
80495;DHT22;69819;48.798;11.770;2023-09-19T16:26:16;25.90;41.40
80495;DHT22;69819;48.798;11.770;2023-09-19T16:28:45;25.80;41.50
80495;DHT22;69819;48.798;11.770;2023-09-19T16:31:11;25.70;41.60
80495;DHT22;69819;48.798;11.770;2023-09-19T16:33:39;25.60;41.60
80495;DHT22;69819;48.798;11.770;2023-09-19T16:36:10;25.50;42.30
80495;DHT22;69819;48.798;11.770;2023-09-19T16:38:37;25.40;41.80
80495;DHT22;69819;48.798;11.770;2023-09-19T16:41:04;25.30;41.80
80495;DHT22;69819;48.798;11.770;2023-09-19T16:43:32;25.20;41.90
80495;DHT22;69819;48.798;11.770;2023-09-19T16:46:08;25.20;42.10